Morro Bay, California
Current Conditions -  °F | °C
As of 6:56 PM on Monday 22 Dec 2014 (Local Time) from KSBP Reporting Station
Clear Clear  
Wind Chill: 61°   Ceiling: Unl
Heat Index: 61°   Visibility: 10mi
Dew Point: 51°   Wind: 14mph
Humidity: 70%   Direction: 310°NW
Pressure: 30.1"   Gusts: NA
Location:  35.37°N, 120.84°W
Report Text: KSBP 230256Z 31012KT 10SM CLR 16/11 A3010 RMK AO2 SLP190 T01610106 51003
Loading
Personal Weather Stations






























Interactive Weather Map New forecast layout! Learn more

10-Day Weather Forecast

Advertisements
Track Severe Weather on mobile